Time;durP1;ratioP1;P1;durP2;ratioP2;P2;SDS_P1;SDS_P2;PMS_P1;PMS_P2;Temp;Humidity;BMP_temperature;BMP_pressure;BME280_temperature;BME280_humidity;BME280_pressure;Samples;Min_cycle;Max_cycle;Signal;HPM_P1;HPM_P2
2024/02/22 00:01:42;;;;;;;1.70;1.60;;;10.50;59.90;;;10.05;57.25;97190.59;5048602;28;20553;-68
2024/02/22 00:04:12;;;;;;;4.17;2.17;;;10.50;60.20;;;9.99;57.61;97186.13;5045650;28;20560;-70
2024/02/22 00:06:39;;;;;;;2.50;1.83;;;10.50;60.70;;;9.82;57.83;97186.78;5053203;28;20547;-69
2024/02/22 00:09:07;;;;;;;2.57;2.20;;;10.40;60.70;;;9.72;58.68;97175.72;5048145;28;20454;-70
2024/02/22 00:11:34;;;;;;;3.00;1.90;;;10.30;60.90;;;9.58;58.62;97181.31;5049081;28;20453;-70
2024/02/22 00:14:02;;;;;;;4.27;2.30;;;10.20;61.00;;;9.54;59.27;97174.75;5079144;28;22022;-69
2024/02/22 00:16:31;;;;;;;2.40;2.20;;;10.20;61.20;;;9.50;59.70;97165.47;5047196;28;20456;-70
2024/02/22 00:18:58;;;;;;;1.90;1.80;;;10.10;61.60;;;9.39;60.41;97155.47;5052857;28;20457;-68
2024/02/22 00:21:26;;;;;;;2.97;1.93;;;10.00;61.70;;;9.43;60.41;97146.69;5047493;28;20755;-68
2024/02/22 00:23:54;;;;;;;4.27;2.23;;;10.00;61.80;;;9.42;60.79;97138.84;5040205;28;20470;-70
2024/02/22 00:26:22;;;;;;;2.60;1.70;;;9.90;63.20;;;9.40;59.97;97122.06;5044224;28;20450;-70
2024/02/22 00:28:50;;;;;;;2.77;2.00;;;9.90;62.60;;;9.45;59.77;97114.09;5047590;28;20463;-69
2024/02/22 00:31:17;;;;;;;2.63;1.90;;;9.90;62.70;;;9.50;60.07;97111.56;5047874;28;20452;-68
2024/02/22 00:33:45;;;;;;;1.80;1.70;;;9.90;62.60;;;9.39;60.11;97090.78;5047426;28;20491;-70
2024/02/22 00:36:13;;;;;;;2.43;2.00;;;9.90;62.70;;;9.51;59.57;97083.53;5047315;28;20449;-70
2024/02/22 00:38:42;;;;;;;2.70;2.20;;;9.90;62.70;;;9.39;59.86;97058.41;5042009;28;20508;-68
2024/02/22 00:41:09;;;;;;;2.27;1.57;;;10.00;61.60;;;9.37;60.64;97055.13;5061808;28;20453;-69
2024/02/22 00:43:37;;;;;;;3.27;2.03;;;9.90;62.80;;;9.41;60.48;97056.31;5046924;28;20622;-69
2024/02/22 00:46:07;;;;;;;3.97;2.20;;;9.90;62.80;;;9.28;60.36;97051.94;5047656;28;20454;-70
2024/02/22 00:48:36;;;;;;;2.00;1.90;;;9.90;63.00;;;9.30;60.15;97044.44;5074294;28;20454;-70
2024/02/22 00:51:06;;;;;;;3.33;2.27;;;9.90;63.00;;;9.35;60.03;97041.88;5057704;28;20478;-70
2024/02/22 00:53:34;;;;;;;2.87;2.20;;;9.90;63.10;;;9.33;60.98;97034.03;5046143;28;20457;-71
2024/02/22 00:56:03;;;;;;;2.40;2.00;;;9.80;63.20;;;9.33;60.49;97017.88;5049700;28;20526;-70
2024/02/22 00:58:32;;;;;;;1.57;1.43;;;9.80;63.40;;;9.20;61.49;97026.16;5045209;28;20524;-70
2024/02/22 01:00:59;;;;;;;2.23;1.67;;;9.80;63.40;;;9.29;60.98;97021.25;5037455;28;20480;-71
2024/02/22 01:03:30;;;;;;;2.30;2.00;;;9.80;63.40;;;9.44;60.98;97013.53;5045610;28;20461;-71
2024/02/22 01:05:59;;;;;;;2.43;1.70;;;9.90;63.60;;;9.42;61.19;97014.81;5047910;28;21135;-71
2024/02/22 01:08:27;;;;;;;2.00;1.80;;;9.90;63.60;;;9.33;61.43;97007.09;5046624;28;20507;-67
2024/02/22 01:10:56;;;;;;;5.07;1.60;;;9.90;63.90;;;9.35;61.62;97004.97;5045290;28;20456;-70
2024/02/22 01:13:27;;;;;;;1.70;1.60;;;10.00;62.80;;;9.42;61.49;96987.84;5046769;28;20460;-69
2024/02/22 01:15:55;;;;;;;1.83;1.63;;;10.10;62.70;;;9.60;61.17;96979.66;5060005;28;20451;-68
2024/02/22 01:18:23;;;;;;;1.33;1.23;;;10.20;62.60;;;9.68;60.32;96970.38;5046691;28;20461;-69
2024/02/22 01:20:51;;;;;;;1.37;1.10;;;10.30;62.20;;;9.82;59.86;96965.56;5047363;28;20464;-69
2024/02/22 01:23:21;;;;;;;1.50;1.23;;;10.40;62.10;;;9.88;58.82;96951.13;5040599;28;20475;-69
2024/02/22 01:25:51;;;;;;;1.23;1.00;;;10.50;61.80;;;9.98;59.29;96947.03;5043346;28;20466;-70
2024/02/22 01:28:18;;;;;;;1.90;1.03;;;10.50;61.70;;;9.99;59.13;96945.97;5044450;28;21100;-69
2024/02/22 01:30:47;;;;;;;1.20;1.00;;;10.60;61.70;;;10.07;58.45;96935.63;5045397;28;20536;-69
2024/02/22 01:33:17;;;;;;;1.10;1.07;;;10.70;61.50;;;10.05;57.92;96923.41;5036900;28;20452;-68
2024/02/22 01:35:47;;;;;;;2.23;1.10;;;10.70;61.20;;;10.15;58.19;96920.09;5058397;28;20547;-69
2024/02/22 01:38:14;;;;;;;1.20;1.10;;;10.80;61.50;;;10.15;58.28;96912.81;5045664;28;20980;-70
2024/02/22 01:40:45;;;;;;;1.27;1.07;;;10.80;61.60;;;10.15;57.55;96893.94;5045930;28;20455;-68
2024/02/22 01:43:12;;;;;;;1.00;1.00;;;10.80;61.20;;;10.24;57.24;96896.25;5040389;28;20520;-67
2024/02/22 01:45:41;;;;;;;1.70;1.00;;;10.80;60.80;;;10.30;57.13;96895.28;5059520;28;21036;-69
2024/02/22 01:48:11;;;;;;;1.43;1.00;;;10.90;60.90;;;10.34;56.96;96886.47;5041264;28;20456;-69
2024/02/22 01:50:42;;;;;;;1.57;0.93;;;10.90;60.50;;;10.32;56.46;96883.19;5046461;28;20458;-70
2024/02/22 01:53:12;;;;;;;1.43;1.17;;;10.90;60.50;;;9.94;56.78;96821.75;5044424;28;20511;-68
2024/02/22 01:55:42;;;;;;;1.33;0.93;;;11.00;60.20;;;10.42;56.90;96888.00;5046498;28;20522;-70
2024/02/22 01:58:12;;;;;;;1.30;1.20;;;11.00;60.50;;;10.35;57.10;96876.47;5044132;28;20471;-68
2024/02/22 02:00:43;;;;;;;3.70;1.20;;;11.00;60.60;;;10.26;57.71;96872.53;5040454;28;20982;-69
2024/02/22 02:03:13;;;;;;;1.77;1.40;;;11.00;60.90;;;10.30;58.00;96868.28;5077115;28;20487;-67
2024/02/22 02:05:41;;;;;;;2.33;1.20;;;10.90;61.20;;;10.24;57.79;96870.06;5045303;28;20452;-67
2024/02/22 02:08:09;;;;;;;2.10;1.40;;;10.90;61.10;;;10.28;57.29;96862.31;5065115;28;21035;-69
2024/02/22 02:10:37;;;;;;;2.03;1.23;;;10.90;61.00;;;10.30;58.52;96865.59;5046720;28;20460;-68
2024/02/22 02:13:06;;;;;;;1.33;1.10;;;10.90;61.70;;;10.29;58.49;96863.94;5042376;28;20450;-69
2024/02/22 02:15:34;;;;;;;3.57;1.60;;;10.90;61.80;;;10.30;58.09;96862.88;5043745;28;20459;-70
2024/02/22 02:18:04;;;;;;;1.53;1.43;;;10.90;61.70;;;10.17;58.64;96859.41;5044547;28;20574;-68
2024/02/22 02:20:49;;;;;;;1.87;1.47;;;10.80;61.90;;;10.23;59.10;96862.19;5046836;28;20456;-69
2024/02/22 02:23:31;;;;;;;1.50;1.40;;;10.80;62.10;;;10.17;60.43;96853.22;5042004;28;20496;-70
2024/02/22 02:26:04;;;;;;;2.00;1.53;;;10.80;62.60;;;10.03;61.43;96848.09;5038587;28;20551;-68
2024/02/22 02:28:34;;;;;;;1.70;1.40;;;10.70;63.40;;;10.00;62.25;96853.16;5068063;28;21068;-71
2024/02/22 02:31:03;;;;;;;2.70;1.50;;;10.60;64.10;;;10.02;62.89;96842.94;5040294;28;20458;-70
2024/02/22 02:33:30;;;;;;;4.60;1.40;;;10.50;64.20;;;10.02;62.84;96840.25;5044090;28;20715;-70
2024/02/22 02:35:57;;;;;;;1.83;1.30;;;10.50;64.50;;;9.92;63.67;96819.28;5060519;28;20519;-70
2024/02/22 02:38:26;;;;;;;1.90;1.53;;;10.50;65.00;;;10.01;64.00;96827.81;5040312;28;20851;-68
2024/02/22 02:40:53;;;;;;;2.93;1.70;;;10.40;65.30;;;10.00;64.27;96820.78;5040307;28;20447;-68
2024/02/22 02:43:23;;;;;;;2.53;1.60;;;10.40;65.70;;;9.90;63.56;96813.31;5049317;28;20476;-68
2024/02/22 02:45:51;;;;;;;1.33;1.23;;;10.40;65.20;;;9.86;64.40;96807.56;5046746;28;20466;-70
2024/02/22 02:48:20;;;;;;;1.77;1.67;;;10.40;65.60;;;9.60;66.50;96801.66;5042746;28;20927;-68
2024/02/22 02:50:48;;;;;;;2.10;1.63;;;10.20;66.20;;;9.60;65.58;96796.28;5044774;28;20938;-69
2024/02/22 02:53:17;;;;;;;2.50;1.57;;;10.20;65.90;;;9.58;64.18;96784.09;5044221;28;20853;-70
2024/02/22 02:55:46;;;;;;;1.47;1.33;;;10.20;65.40;;;9.60;64.09;96787.38;5042938;28;20957;-67
2024/02/22 02:58:14;;;;;;;1.87;1.40;;;10.30;65.70;;;9.61;64.79;96787.13;5019589;28;20440;-69
2024/02/22 03:00:44;;;;;;;1.37;1.23;;;10.20;65.70;;;9.74;63.97;96780.66;5039198;28;20470;-67
2024/02/22 03:03:12;;;;;;;3.67;1.70;;;10.30;65.60;;;9.64;64.60;96778.56;5048256;28;20459;-71
2024/02/22 03:05:40;;;;;;;2.83;1.53;;;10.30;65.60;;;9.70;64.82;96778.66;5044850;28;20472;-70
2024/02/22 03:08:09;;;;;;;2.10;1.73;;;10.30;66.00;;;9.69;65.50;96771.63;5049742;28;21203;-70
2024/02/22 03:10:37;;;;;;;1.93;1.70;;;10.30;66.60;;;9.61;65.65;96770.94;5046400;28;20457;-70
2024/02/22 03:13:08;;;;;;;1.53;1.43;;;10.20;66.60;;;9.53;66.45;96760.53;5044942;28;20809;-70
2024/02/22 03:15:39;;;;;;;1.80;1.57;;;10.20;67.20;;;9.52;66.92;96755.38;5045197;28;20994;-69
2024/02/22 03:18:11;;;;;;;1.67;1.47;;;10.10;67.30;;;9.40;66.52;96739.25;5040049;28;20455;-71
2024/02/22 03:20:39;;;;;;;2.60;1.30;;;10.10;67.60;;;9.40;68.05;96747.34;5046528;28;20458;-69
2024/02/22 03:23:08;;;;;;;2.90;1.63;;;10.10;68.00;;;9.49;68.01;96751.31;5042011;28;20473;-69
2024/02/22 03:25:35;;;;;;;1.70;1.60;;;10.10;68.20;;;9.37;67.93;96732.44;5076292;28;20450;-70
2024/02/22 03:28:06;;;;;;;2.90;1.37;;;10.10;68.30;;;9.46;67.84;96744.50;5044909;28;20571;-70
2024/02/22 03:30:34;;;;;;;2.90;1.40;;;10.10;68.20;;;9.25;69.35;96756.75;5038977;28;20545;-70
2024/02/22 03:33:02;;;;;;;1.70;1.60;;;10.00;68.80;;;9.35;69.35;96746.19;5041267;28;20484;-68
2024/02/22 03:35:34;;;;;;;1.93;1.83;;;10.00;69.20;;;9.30;69.59;96742.56;5043244;28;20468;-71
2024/02/22 03:38:02;;;;;;;2.60;1.60;;;10.00;69.80;;;9.21;70.14;96744.81;5040700;28;20947;-68
2024/02/22 03:40:30;;;;;;;1.90;1.70;;;10.00;70.10;;;9.17;71.74;96733.69;5040156;28;20539;-69
2024/02/22 03:43:02;;;;;;;1.87;1.33;;;9.90;72.10;;;9.05;72.95;96731.03;5040526;28;20453;-69
2024/02/22 03:45:30;;;;;;;2.80;1.40;;;9.80;73.20;;;8.89;74.81;96726.38;5048031;28;20483;-68
2024/02/22 03:47:59;;;;;;;1.90;1.57;;;9.70;74.50;;;8.91;75.13;96732.34;5048455;28;20451;-67
2024/02/22 03:50:27;;;;;;;1.93;1.70;;;9.60;75.80;;;9.00;74.95;96728.19;5052594;28;20881;-70
2024/02/22 03:52:58;;;;;;;3.43;1.50;;;9.60;76.00;;;8.77;76.72;96727.19;5047496;28;20460;-71
2024/02/22 03:55:30;;;;;;;2.20;2.00;;;9.50;77.20;;;8.87;77.96;96717.69;5044584;28;20452;-68
2024/02/22 03:57:58;;;;;;;3.23;1.73;;;9.50;78.30;;;8.64;78.93;96719.34;5042438;28;20518;-69
2024/02/22 04:00:26;;;;;;;2.00;1.70;;;9.40;79.50;;;8.72;79.50;96721.69;5051422;28;20467;-69
2024/02/22 04:02:55;;;;;;;2.10;1.90;;;9.30;80.30;;;8.62;80.51;96706.13;5053449;28;21073;-69
2024/02/22 04:05:24;;;;;;;1.80;1.70;;;9.30;81.20;;;8.56;81.80;96712.44;5043992;28;20829;-69
2024/02/22 04:07:56;;;;;;;1.70;1.60;;;9.30;82.00;;;8.40;82.85;96703.16;5047113;28;20436;-69
2024/02/22 04:10:24;;;;;;;2.60;1.73;;;9.20;82.50;;;8.55;81.71;96704.59;5063197;28;20452;-69
2024/02/22 04:12:51;;;;;;;3.03;2.23;;;9.20;83.00;;;8.50;82.88;96708.00;5042385;28;20536;-69
2024/02/22 04:15:19;;;;;;;2.13;1.80;;;9.10;83.10;;;8.31;82.52;96693.81;5047157;28;20457;-69
2024/02/22 04:17:48;;;;;;;2.73;2.50;;;9.10;82.90;;;8.36;84.14;96696.59;5048025;28;20510;-69
2024/02/22 04:20:15;;;;;;;2.63;2.03;;;9.10;83.90;;;8.42;84.64;96700.25;5049125;28;20444;-69
2024/02/22 04:22:48;;;;;;;3.20;2.13;;;9.10;84.70;;;8.30;85.96;96689.47;5045406;28;20464;-70
2024/02/22 04:25:19;;;;;;;2.00;1.80;;;9.00;85.00;;;8.23;85.81;96674.25;5037710;28;20640;-68
2024/02/22 04:27:46;;;;;;;2.87;1.67;;;9.00;85.70;;;8.13;86.51;96671.34;5045413;28;21007;-70
2024/02/22 04:30:15;;;;;;;2.83;2.10;;;8.90;86.20;;;7.73;87.26;96623.56;5048632;28;20498;-70
2024/02/22 04:32:46;;;;;;;3.10;1.83;;;8.90;86.40;;;8.14;87.50;96681.03;5046274;28;20456;-69
2024/02/22 04:35:14;;;;;;;2.80;2.60;;;8.90;87.30;;;8.13;88.87;96684.78;5051423;28;20505;-68
2024/02/22 04:37:41;;;;;;;2.20;2.10;;;8.80;88.30;;;8.13;88.75;96679.41;5048321;28;20484;-67
2024/02/22 04:40:10;;;;;;;3.50;2.40;;;8.80;89.20;;;8.12;90.01;96677.78;5044526;28;20457;-69
2024/02/22 04:42:39;;;;;;;2.57;1.97;;;8.80;90.10;;;8.07;90.84;96674.94;5067767;28;21075;-69
2024/02/22 04:45:07;;;;;;;4.80;2.70;;;8.70;90.50;;;8.06;90.64;96665.22;5046226;28;20478;-69
2024/02/22 04:47:36;;;;;;;3.13;2.03;;;8.70;90.70;;;7.98;90.72;96665.59;5047706;28;20506;-68
2024/02/22 04:50:05;;;;;;;3.40;2.30;;;8.70;90.60;;;8.01;91.17;96667.81;5047675;28;20534;-69
2024/02/22 04:52:34;;;;;;;3.77;2.30;;;8.70;90.90;;;7.97;91.50;96655.88;5048724;28;20507;-69
2024/02/22 04:55:03;;;;;;;4.97;3.03;;;8.70;91.20;;;7.96;92.27;96659.59;5044563;28;20964;-68
2024/02/22 04:57:31;;;;;;;4.17;2.10;;;8.60;91.30;;;7.90;92.42;96672.94;5046944;28;20464;-68
2024/02/22 05:00:00;;;;;;;3.30;2.37;;;8.60;91.00;;;7.89;92.34;96659.75;5044916;28;20478;-66
2024/02/22 05:02:28;;;;;;;2.10;1.90;;;8.60;91.40;;;7.93;93.22;96663.59;5075048;28;20467;-70
2024/02/22 05:04:59;;;;;;;2.70;2.33;;;8.60;91.50;;;7.86;93.86;96663.69;5044033;28;20469;-69
2024/02/22 05:07:26;;;;;;;2.50;2.17;;;8.60;91.90;;;7.59;94.15;96613.03;5047133;28;20449;-69
2024/02/22 05:09:55;;;;;;;2.70;2.20;;;8.50;92.50;;;7.39;95.18;96585.66;5048019;28;20499;-69
2024/02/22 05:12:29;;;;;;;1.73;1.53;;;8.50;92.80;;;7.74;95.91;96631.41;5047833;28;20473;-69
2024/02/22 05:14:58;;;;;;;2.87;2.60;;;8.50;93.20;;;7.68;96.52;96621.56;5045497;28;20488;-70
2024/02/22 05:17:34;;;;;;;2.20;2.00;;;8.50;93.40;;;7.75;97.29;96638.44;5046618;28;20451;-69
2024/02/22 05:20:02;;;;;;;4.13;2.40;;;8.50;93.90;;;7.73;97.80;96632.44;5039869;28;20805;-70
2024/02/22 05:22:34;;;;;;;2.60;2.40;;;8.40;94.10;;;7.63;98.25;96624.16;5047714;28;20447;-70
2024/02/22 05:25:08;;;;;;;3.43;2.70;;;8.40;94.30;;;7.61;98.49;96627.06;5042844;28;20481;-67
2024/02/22 05:27:36;;;;;;;3.93;2.30;;;8.40;94.60;;;7.55;99.62;96625.28;5043838;28;20893;-66
2024/02/22 05:30:05;;;;;;;3.00;2.60;;;8.30;95.20;;;7.59;99.82;96625.66;5044608;28;21091;-68
2024/02/22 05:32:35;;;;;;;2.57;2.37;;;8.30;95.50;;;7.59;100.00;96612.22;5042740;28;20507;-71
2024/02/22 05:35:03;;;;;;;3.03;2.43;;;8.30;96.00;;;7.57;100.00;96615.13;5051113;28;20467;-69
2024/02/22 05:37:30;;;;;;;3.60;2.87;;;8.30;95.90;;;7.55;100.00;96613.72;5029195;28;21068;-68
2024/02/22 05:39:58;;;;;;;5.13;3.57;;;8.20;95.80;;;7.71;100.00;96599.59;5042737;28;20499;-74
2024/02/22 05:42:26;;;;;;;3.87;2.70;;;8.30;97.00;;;7.60;100.00;96601.22;5046327;28;20472;-73
2024/02/22 05:44:53;;;;;;;4.57;3.20;;;8.30;95.90;;;7.70;99.74;96595.28;5046881;28;20479;-72
2024/02/22 05:47:20;;;;;;;5.70;3.37;;;8.30;96.20;;;7.71;98.20;96588.03;5047066;28;20544;-77
2024/02/22 05:49:49;;;;;;;4.17;3.00;;;8.30;95.30;;;7.64;99.24;96588.94;5039165;28;20472;-69
2024/02/22 05:52:16;;;;;;;4.43;3.73;;;8.30;95.30;;;7.55;99.30;96563.47;5044971;28;20532;-74
2024/02/22 05:54:45;;;;;;;4.53;3.17;;;8.20;95.40;;;7.58;99.69;96559.47;5036660;28;20460;-74
2024/02/22 05:57:12;;;;;;;9.40;3.63;;;8.20;95.80;;;7.57;99.71;96558.69;5050395;28;20458;-74
2024/02/22 05:59:39;;;;;;;4.40;3.60;;;8.20;96.00;;;7.64;100.00;96556.69;5047197;28;20963;-70
2024/02/22 06:02:06;;;;;;;4.03;3.63;;;8.20;96.40;;;7.53;99.99;96546.78;5041645;28;21004;-74
2024/02/22 06:04:34;;;;;;;4.77;3.43;;;8.20;95.70;;;7.51;100.00;96547.00;5051879;28;20498;-73
2024/02/22 06:07:03;;;;;;;4.60;4.10;;;8.20;96.30;;;7.47;100.00;96539.63;5043588;28;20464;-73
2024/02/22 06:09:32;;;;;;;4.67;4.20;;;8.20;96.10;;;7.59;100.00;96542.34;5048857;28;20556;-72
2024/02/22 06:11:59;;;;;;;4.80;3.73;;;8.20;96.40;;;7.54;99.45;96540.34;5045047;28;20456;-74
2024/02/22 06:14:26;;;;;;;3.93;3.30;;;8.20;95.60;;;7.42;100.00;96548.38;5040152;28;20459;-75
2024/02/22 06:16:55;;;;;;;5.90;4.03;;;8.10;95.90;;;7.43;100.00;96546.50;5044582;28;20472;-73
2024/02/22 06:19:22;;;;;;;4.70;4.10;;;8.10;96.70;;;7.34;100.00;96535.28;5045343;28;20457;-76
2024/02/22 06:21:49;;;;;;;4.63;4.23;;;8.00;96.90;;;7.46;100.00;96537.97;5040202;28;21296;-75
2024/02/22 06:24:18;;;;;;;4.77;4.37;;;8.10;97.40;;;7.47;100.00;96540.44;5044956;28;20542;-77
2024/02/22 06:26:45;;;;;;;6.43;4.47;;;8.10;97.10;;;7.26;100.00;96539.13;5042463;28;20477;-77
2024/02/22 06:29:13;;;;;;;8.43;4.37;;;8.00;96.60;;;7.40;100.00;96538.91;5044995;28;20448;-74
2024/02/22 06:31:40;;;;;;;6.37;4.10;;;8.00;97.30;;;6.78;100.00;96453.06;5045433;28;20940;-73
2024/02/22 06:34:06;;;;;;;4.70;4.23;;;8.00;97.50;;;7.34;100.00;96533.41;5040024;28;20453;-73
2024/02/22 06:36:34;;;;;;;5.07;4.20;;;8.00;97.50;;;7.51;100.00;96540.81;5044533;28;20443;-77
2024/02/22 06:39:01;;;;;;;4.77;4.20;;;8.10;97.50;;;7.47;100.00;96531.56;5041286;28;20484;-73
2024/02/22 06:41:31;;;;;;;5.40;4.90;;;8.10;96.70;;;7.45;100.00;96533.66;5044430;28;20554;-69
2024/02/22 06:44:00;;;;;;;5.80;4.70;;;8.10;96.90;;;7.40;100.00;96523.59;5040483;28;21059;-68
2024/02/22 06:46:27;;;;;;;5.10;4.60;;;8.10;96.70;;;7.40;100.00;96518.22;5043340;28;20514;-76
2024/02/22 06:48:55;;;;;;;4.67;4.27;;;8.10;96.80;;;7.47;100.00;96502.00;5043858;28;20446;-73
2024/02/22 06:51:22;;;;;;;5.87;4.43;;;8.20;97.00;;;7.64;100.00;96519.06;5041628;28;20506;-74
2024/02/22 06:53:49;;;;;;;5.73;4.83;;;8.20;97.00;;;7.53;100.00;96503.75;5044329;28;20454;-69
2024/02/22 06:56:17;;;;;;;5.33;4.80;;;8.20;96.20;;;7.53;100.00;96516.38;5038062;28;20498;-69
2024/02/22 06:58:46;;;;;;;5.97;4.77;;;8.20;96.40;;;7.62;100.00;96506.91;5038322;28;20460;-68
2024/02/22 07:01:13;;;;;;;5.43;4.63;;;8.20;96.40;;;7.50;100.00;96496.16;5044528;28;21007;-72
2024/02/22 07:03:41;;;;;;;4.80;4.37;;;8.20;96.20;;;7.43;100.00;96498.13;5043323;28;20472;-75
2024/02/22 07:06:09;;;;;;;6.93;5.13;;;8.20;96.20;;;7.44;100.00;96497.91;5065006;28;20901;-74
2024/02/22 07:08:37;;;;;;;6.40;4.67;;;8.20;96.70;;;7.52;100.00;96494.06;5068063;28;20455;-75
2024/02/22 07:11:05;;;;;;;6.83;4.50;;;8.20;97.00;;;7.49;100.00;96491.81;5044489;28;20466;-78
2024/02/22 07:13:34;;;;;;;5.97;4.70;;;8.20;96.80;;;7.58;100.00;96487.75;5039599;28;20522;-78
2024/02/22 07:16:03;;;;;;;7.77;5.17;;;8.20;96.60;;;7.56;100.00;96499.78;5044039;28;21082;-76
2024/02/22 07:18:30;;;;;;;5.03;4.43;;;8.20;96.30;;;7.54;100.00;96486.59;5066850;28;21550;-75
2024/02/22 07:20:58;;;;;;;10.60;4.80;;;8.20;96.90;;;7.46;100.00;96489.59;5044728;28;20913;-77
2024/02/22 07:23:25;;;;;;;10.63;4.63;;;8.20;96.70;;;7.46;100.00;96474.31;5051918;28;21075;-73
2024/02/22 07:25:52;;;;;;;8.90;5.37;;;8.20;97.00;;;7.52;100.00;96477.94;5048333;28;20475;-74
2024/02/22 07:28:20;;;;;;;5.33;4.60;;;8.20;97.20;;;7.50;100.00;96474.66;5041859;28;20470;-77
2024/02/22 07:30:47;;;;;;;6.70;5.00;;;8.20;96.80;;;7.52;100.00;96472.56;5036372;28;20483;-77
2024/02/22 07:33:17;;;;;;;6.50;5.47;;;8.30;97.10;;;7.52;100.00;96464.50;5040586;28;20477;-81
2024/02/22 07:35:44;;;;;;;5.23;4.70;;;8.20;97.10;;;7.45;100.00;96467.31;5044541;28;20516;-80
2024/02/22 07:38:11;;;;;;;11.87;5.43;;;8.20;97.30;;;7.59;100.00;96462.50;5047018;28;20452;-77
2024/02/22 07:40:39;;;;;;;6.33;4.47;;;8.20;97.80;;;7.62;100.00;96471.97;5078606;28;20462;-82
2024/02/22 07:43:06;;;;;;;5.13;4.30;;;8.30;97.50;;;7.58;100.00;96466.25;5078982;28;20863;-78
2024/02/22 07:45:33;;;;;;;5.83;5.10;;;8.30;97.40;;;7.69;100.00;96461.91;5040940;28;20480;-75
2024/02/22 07:48:08;;;;;;;5.47;4.73;;;8.30;98.20;;;7.69;100.00;96461.09;5045336;28;20542;-75
2024/02/22 07:50:37;;;;;;;7.40;4.60;;;8.40;97.50;;;7.73;100.00;96467.63;5044561;28;20534;-77
2024/02/22 07:53:05;;;;;;;5.90;4.10;;;8.40;97.10;;;7.75;100.00;96460.16;5044455;28;21089;-82
2024/02/22 07:55:33;;;;;;;5.77;4.93;;;8.40;97.40;;;7.82;100.00;96463.56;5045084;28;20486;-81
2024/02/22 07:58:01;;;;;;;11.53;3.83;;;8.50;97.70;;;7.75;100.00;96455.59;5047826;28;20757;-76
2024/02/22 08:00:28;;;;;;;4.87;3.70;;;8.50;97.00;;;7.85;100.00;96464.94;5046547;28;20460;-79
2024/02/22 08:02:55;;;;;;;5.30;4.30;;;8.50;97.30;;;7.84;100.00;96460.59;5046093;28;20476;-80
2024/02/22 08:05:22;;;;;;;4.13;3.80;;;8.50;96.90;;;7.88;100.00;96453.69;5038980;28;20490;-78
2024/02/22 08:07:51;;;;;;;3.97;3.57;;;8.50;97.40;;;7.90;100.00;96446.22;5060727;28;20464;-78
2024/02/22 08:10:18;;;;;;;5.03;3.90;;;8.60;97.00;;;7.89;100.00;96434.66;5045139;28;20533;-78
2024/02/22 08:12:46;;;;;;;4.33;3.93;;;8.60;97.40;;;7.84;100.00;96445.31;5049598;28;20468;-77
2024/02/22 08:15:13;;;;;;;5.90;3.57;;;8.50;97.40;;;7.83;100.00;96446.38;5078240;28;20461;-82
2024/02/22 08:17:41;;;;;;;4.33;3.93;;;8.50;97.70;;;7.94;100.00;96445.50;5043179;28;20540;-74
2024/02/22 08:20:11;;;;;;;4.47;3.20;;;8.60;98.10;;;8.12;100.00;96438.34;5045757;28;20452;-76
2024/02/22 08:22:38;;;;;;;4.20;3.67;;;8.70;97.90;;;7.93;100.00;96425.03;5048655;28;20472;-79
2024/02/22 08:25:08;;;;;;;3.30;3.00;;;8.70;96.90;;;8.02;100.00;96425.47;5075042;28;20476;-78
2024/02/22 08:27:35;;;;;;;5.23;3.33;;;8.70;97.50;;;8.05;100.00;96426.88;5054432;28;20544;-82
2024/02/22 08:30:02;;;;;;;4.50;3.40;;;8.70;97.70;;;7.82;100.00;96385.56;5047223;28;20528;-79
2024/02/22 08:32:30;;;;;;;4.90;3.47;;;8.70;97.60;;;8.07;100.00;96419.41;5045204;28;20540;-81
2024/02/22 08:34:58;;;;;;;4.53;3.00;;;8.70;97.80;;;8.05;100.00;96416.97;5062466;28;20618;-78
2024/02/22 08:37:26;;;;;;;4.77;3.77;;;8.70;97.80;;;8.18;100.00;96415.88;5046678;28;20837;-82
2024/02/22 08:39:55;;;;;;;5.20;4.00;;;8.80;97.80;;;8.13;100.00;96406.88;5042987;28;20495;-78
2024/02/22 08:42:23;;;;;;;4.00;3.60;;;8.80;97.80;;;8.22;100.00;96421.59;5047782;28;20484;-79
2024/02/22 08:44:50;;;;;;;4.17;3.77;;;8.80;97.90;;;8.25;100.00;96414.88;5051939;28;20518;-78
2024/02/22 08:47:17;;;;;;;4.23;3.83;;;8.90;97.80;;;8.33;100.00;96411.84;5057423;28;20449;-81
2024/02/22 08:49:47;;;;;;;4.13;3.37;;;8.90;97.30;;;8.28;100.00;96407.16;5042793;28;20456;-75
2024/02/22 08:52:14;;;;;;;4.50;3.33;;;9.00;96.90;;;8.33;100.00;96409.13;5045541;28;20454;-81
2024/02/22 08:54:42;;;;;;;6.00;3.00;;;9.00;96.60;;;8.33;100.00;96401.88;5043356;28;20466;-80
2024/02/22 08:57:09;;;;;;;4.13;3.20;;;9.00;97.00;;;8.46;100.00;96411.53;5047353;28;20459;-77
2024/02/22 08:59:37;;;;;;;3.73;3.23;;;9.00;97.30;;;8.22;100.00;96376.66;5043753;28;20479;-72
2024/02/22 09:02:05;;;;;;;2.73;2.53;;;9.10;96.70;;;8.53;100.00;96394.44;5049507;28;20476;-77
2024/02/22 09:04:33;;;;;;;3.90;2.83;;;9.10;96.50;;;8.60;100.00;96392.44;5039326;28;20461;-81
2024/02/22 09:07:01;;;;;;;3.67;3.33;;;9.20;96.60;;;8.56;100.00;96392.09;5049173;28;20484;-79
2024/02/22 09:09:29;;;;;;;2.67;2.40;;;9.20;96.00;;;8.03;100.00;96324.91;5040768;28;20975;-77
2024/02/22 09:11:56;;;;;;;2.90;2.70;;;9.20;95.90;;;8.66;100.00;96383.38;5050256;28;20484;-79
2024/02/22 09:14:25;;;;;;;3.00;2.50;;;9.20;96.10;;;8.58;100.00;96381.91;5055265;28;20454;-77
2024/02/22 09:16:55;;;;;;;2.60;2.40;;;9.30;95.70;;;8.72;100.00;96374.34;5054202;28;20478;-78
2024/02/22 09:19:23;;;;;;;5.00;2.57;;;9.30;95.60;;;8.88;99.91;96374.59;5059048;28;20444;-79
2024/02/22 09:21:50;;;;;;;3.03;2.23;;;9.40;95.40;;;8.73;99.70;96373.28;5058859;28;20457;-79
2024/02/22 09:24:17;;;;;;;2.37;2.17;;;9.40;94.80;;;8.75;99.57;96367.63;5060497;28;20464;-77
2024/02/22 09:26:45;;;;;;;2.73;2.53;;;9.40;94.90;;;8.86;99.18;96371.31;5054057;28;20474;-77
2024/02/22 09:29:12;;;;;;;2.40;2.20;;;9.50;95.10;;;8.90;99.05;96367.06;5073297;28;21028;-75
2024/02/22 09:31:40;;;;;;;3.00;2.70;;;9.50;95.20;;;8.83;99.48;96367.25;5061618;28;20468;-72
2024/02/22 09:34:08;;;;;;;2.00;1.80;;;9.50;94.90;;;8.64;100.00;96361.25;5060851;28;20463;-76
2024/02/22 09:36:35;;;;;;;2.30;2.00;;;9.40;94.90;;;8.76;100.00;96351.25;5056182;28;20950;-77
2024/02/22 09:39:03;;;;;;;2.60;2.40;;;9.40;95.20;;;8.98;99.54;96353.19;5045656;28;20445;-79
2024/02/22 09:41:31;;;;;;;2.80;2.60;;;9.50;95.00;;;8.95;99.36;96353.69;5046544;28;20541;-76
2024/02/22 09:43:58;;;;;;;2.10;1.90;;;9.60;94.70;;;8.86;98.55;96317.44;5051757;28;20454;-73
2024/02/22 09:46:26;;;;;;;2.50;1.93;;;9.70;94.30;;;8.90;99.33;96345.53;5046723;28;20479;-81
2024/02/22 09:48:53;;;;;;;2.20;1.60;;;9.60;94.40;;;8.90;98.65;96340.94;5044908;28;20455;-82
2024/02/22 09:51:24;;;;;;;2.00;1.90;;;9.60;94.50;;;8.96;99.04;96341.84;5043122;28;20461;-78
2024/02/22 09:53:51;;;;;;;2.07;1.97;;;9.60;94.40;;;9.10;98.55;96338.81;5034069;28;20458;-80
2024/02/22 09:56:19;;;;;;;3.50;1.70;;;9.70;94.60;;;9.14;97.88;96339.94;5044449;28;21132;-78
2024/02/22 09:58:48;;;;;;;2.23;1.80;;;9.80;94.30;;;9.23;97.30;96338.47;5073020;28;20477;-80
2024/02/22 10:01:15;;;;;;;4.83;1.93;;;9.80;94.10;;;9.27;98.27;96323.41;5041268;28;21300;-79
2024/02/22 10:03:43;;;;;;;4.17;1.73;;;9.90;94.10;;;9.24;97.15;96326.63;5039999;28;20457;-77
2024/02/22 10:06:17;;;;;;;3.60;1.80;;;10.00;93.20;;;9.45;96.79;96313.41;5038927;28;20832;-79
2024/02/22 10:08:49;;;;;;;1.83;1.63;;;10.10;93.30;;;9.68;95.82;96316.94;5067950;28;20495;-76
2024/02/22 10:11:19;;;;;;;2.30;1.97;;;10.30;92.50;;;9.80;95.76;96308.72;5040981;28;20449;-75
2024/02/22 10:13:46;;;;;;;1.83;1.73;;;10.40;92.30;;;9.95;94.30;96300.78;5043844;28;20845;-81
2024/02/22 10:16:15;;;;;;;2.33;1.77;;;10.60;92.00;;;10.11;92.58;96299.06;5039131;28;20456;-81
2024/02/22 10:18:43;;;;;;;2.10;1.13;;;10.70;91.50;;;10.33;91.57;96300.88;5034125;28;20504;-77
2024/02/22 10:21:15;;;;;;;1.93;1.40;;;10.80;91.30;;;10.30;90.83;96299.50;5043888;28;20896;-80
2024/02/22 10:23:46;;;;;;;1.43;1.10;;;10.90;90.90;;;10.46;90.03;96294.28;5046749;28;20553;-75
2024/02/22 10:26:13;;;;;;;1.67;1.43;;;11.10;90.60;;;10.54;90.43;96283.00;5041026;28;20480;-75
2024/02/22 10:28:41;;;;;;;2.30;1.73;;;11.10;90.70;;;10.71;87.58;96276.66;5047695;28;20903;-79
2024/02/22 10:31:08;;;;;;;2.50;2.13;;;11.30;90.00;;;10.85;88.08;96274.34;5049355;28;20459;-78
2024/02/22 10:33:36;;;;;;;2.43;1.57;;;11.40;90.20;;;10.69;87.85;96270.69;5049373;28;20474;-80